Time;durP1;ratioP1;P1;durP2;ratioP2;P2;SDS_P1;SDS_P2;PMS_P1;PMS_P2;Temp;Humidity;BMP_temperature;BMP_pressure;BME280_temperature;BME280_humidity;BME280_pressure;Samples;Min_cycle;Max_cycle;Signal;HPM_P1;HPM_P2
2022/08/04 00:01:02;;;;;;;3.00;2.70;;;;;;;;;;2089246;28;20037;-79
2022/08/04 00:02:24;;;;;;;4.03;2.67;;;;;;;;;;2088892;28;20024;-77
2022/08/04 00:03:49;;;;;;;4.68;2.83;;;;;;;;;;2087372;28;20041;-77
2022/08/04 00:05:18;;;;;;;2.90;2.50;;;;;;;;;;2090052;28;20032;-78
2022/08/04 00:06:44;;;;;;;5.00;3.13;;;;;;;;;;2088434;28;20025;-78
2022/08/04 00:08:32;;;;;;;4.72;2.72;;;;;;;;;;2088615;28;20029;-78
2022/08/04 00:09:53;;;;;;;2.95;2.30;;;;;;;;;;2087007;28;20025;-78
2022/08/04 00:11:14;;;;;;;3.83;2.75;;;;;;;;;;2088226;28;20061;-79
2022/08/04 00:12:35;;;;;;;4.25;2.65;;;;;;;;;;2089124;28;20382;-78
2022/08/04 00:14:01;;;;;;;4.97;2.78;;;;;;;;;;2087388;28;20033;-79
2022/08/04 00:15:22;;;;;;;3.72;2.83;;;;;;;;;;2088733;28;20112;-78
2022/08/04 00:16:42;;;;;;;4.80;2.30;;;;;;;;;;2088779;28;20037;-78
2022/08/04 00:18:05;;;;;;;8.07;3.17;;;;;;;;;;2087202;28;20075;-78
2022/08/04 00:19:28;;;;;;;4.22;2.72;;;;;;;;;;2093209;28;20044;-78
2022/08/04 00:20:47;;;;;;;4.15;2.80;;;;;;;;;;2088019;28;20041;-79
2022/08/04 00:22:08;;;;;;;6.07;2.50;;;;;;;;;;2088004;28;20037;-78
2022/08/04 00:23:29;;;;;;;3.67;2.70;;;;;;;;;;2088852;28;20032;-78
2022/08/04 00:24:48;;;;;;;5.20;2.50;;;;;;;;;;2088021;28;20033;-78
2022/08/04 00:26:08;;;;;;;4.13;2.72;;;;;;;;;;2086887;28;20025;-79
2022/08/04 00:27:28;;;;;;;2.78;2.53;;;;;;;;;;2085443;28;20033;-77
2022/08/04 00:28:47;;;;;;;8.57;2.85;;;;;;;;;;2081443;28;20493;-78
2022/08/04 00:30:06;;;;;;;6.43;2.50;;;;;;;;;;2084644;28;20116;-78
2022/08/04 00:31:26;;;;;;;3.55;2.65;;;;;;;;;;2088874;28;20493;-77
2022/08/04 00:32:45;;;;;;;5.47;3.08;;;;;;;;;;2088982;28;20546;-79
2022/08/04 00:34:04;;;;;;;4.72;2.83;;;;;;;;;;2087499;28;20053;-79
2022/08/04 00:35:23;;;;;;;4.18;2.35;;;;;;;;;;2088616;28;20484;-77
2022/08/04 00:36:43;;;;;;;6.25;2.88;;;;;;;;;;2086472;28;20510;-77
2022/08/04 00:38:02;;;;;;;4.63;2.70;;;;;;;;;;2086844;28;20040;-78
2022/08/04 00:39:21;;;;;;;4.28;3.72;;;;;;;;;;2085037;28;20037;-78
2022/08/04 00:40:46;;;;;;;5.45;2.33;;;;;;;;;;2092920;28;20033;-78
2022/08/04 00:42:14;;;;;;;3.15;2.42;;;;;;;;;;2090135;28;20033;-78
2022/08/04 00:43:38;;;;;;;4.65;2.45;;;;;;;;;;2088369;28;20029;-78
2022/08/04 00:44:57;;;;;;;5.45;2.53;;;;;;;;;;2088600;28;20493;-78
2022/08/04 00:46:24;;;;;;;5.78;2.92;;;;;;;;;;2088298;28;20037;-78
2022/08/04 00:48:03;;;;;;;3.40;2.58;;;;;;;;;;2091086;28;20457;-78
2022/08/04 00:49:29;;;;;;;3.05;2.20;;;;;;;;;;2087479;28;20026;-78
2022/08/04 00:51:04;;;;;;;2.75;2.42;;;;;;;;;;2089158;28;20113;-78
2022/08/04 00:52:36;;;;;;;4.13;2.70;;;;;;;;;;2089330;28;20029;-78
2022/08/04 00:54:04;;;;;;;4.28;2.60;;;;;;;;;;2088729;28;20524;-78
2022/08/04 00:55:35;;;;;;;4.00;2.05;;;;;;;;;;2088200;28;20109;-77
2022/08/04 00:57:13;;;;;;;5.88;2.45;;;;;;;;;;2089685;28;20081;-78
2022/08/04 00:59:05;;;;;;;3.53;2.47;;;;;;;;;;2088813;28;20410;-77
2022/08/04 01:00:24;;;;;;;3.80;2.65;;;;;;;;;;2046997;29;20051;-78
2022/08/04 01:01:57;;;;;;;3.47;2.63;;;;;;;;;;2086652;28;20053;-77
2022/08/04 01:03:19;;;;;;;5.47;2.50;;;;;;;;;;2089675;28;20033;-78
2022/08/04 01:04:45;;;;;;;5.45;3.17;;;;;;;;;;2087588;28;20068;-78
2022/08/04 01:06:16;;;;;;;5.53;2.75;;;;;;;;;;2085522;28;20040;-78
2022/08/04 01:07:54;;;;;;;5.10;2.70;;;;;;;;;;2087980;28;20033;-77
2022/08/04 01:09:23;;;;;;;5.57;2.65;;;;;;;;;;2087947;28;20017;-78
2022/08/04 01:10:48;;;;;;;4.88;2.47;;;;;;;;;;2089141;28;20044;-78
2022/08/04 01:12:08;;;;;;;3.75;2.50;;;;;;;;;;2085467;28;20468;-79
2022/08/04 01:13:45;;;;;;;4.70;2.70;;;;;;;;;;2083748;28;20518;-77
2022/08/04 01:15:06;;;;;;;5.25;2.45;;;;;;;;;;2088437;28;20029;-78
2022/08/04 01:16:25;;;;;;;3.65;2.53;;;;;;;;;;2088184;28;20017;-78
2022/08/04 01:17:59;;;;;;;3.85;2.67;;;;;;;;;;2088295;28;20071;-78
2022/08/04 01:19:33;;;;;;;6.93;3.03;;;;;;;;;;2088077;28;20032;-78
2022/08/04 01:20:52;;;;;;;3.60;2.38;;;;;;;;;;2088744;28;20433;-78
2022/08/04 01:22:24;;;;;;;4.78;2.72;;;;;;;;;;2088318;28;20028;-78
2022/08/04 01:24:01;;;;;;;2.63;2.38;;;;;;;;;;2086232;28;20025;-78
2022/08/04 01:25:39;;;;;;;4.22;2.35;;;;;;;;;;2087470;28;20514;-78
2022/08/04 01:27:04;;;;;;;5.18;2.20;;;;;;;;;;2090054;28;20041;-78
2022/08/04 01:28:41;;;;;;;4.32;2.90;;;;;;;;;;2087101;28;20099;-78
2022/08/04 01:30:01;;;;;;;6.13;2.67;;;;;;;;;;2087452;28;20482;-78
2022/08/04 01:31:33;;;;;;;5.15;2.25;;;;;;;;;;2088820;28;20032;-78
2022/08/04 01:33:03;;;;;;;5.32;2.80;;;;;;;;;;2088015;28;20417;-79
2022/08/04 01:34:22;;;;;;;4.40;2.58;;;;;;;;;;2087596;28;20075;-78
2022/08/04 01:35:50;;;;;;;2.50;2.22;;;;;;;;;;2086628;28;20029;-79
2022/08/04 01:37:08;;;;;;;3.10;2.85;;;;;;;;;;2087694;28;20073;-78
2022/08/04 01:38:29;;;;;;;2.55;2.17;;;;;;;;;;2089638;28;20406;-79
2022/08/04 01:39:49;;;;;;;4.65;2.53;;;;;;;;;;2095053;28;20069;-79
2022/08/04 01:41:09;;;;;;;3.92;2.40;;;;;;;;;;2091974;28;20061;-78
2022/08/04 01:42:30;;;;;;;3.95;2.45;;;;;;;;;;2088087;28;20029;-79
2022/08/04 01:43:50;;;;;;;5.25;3.20;;;;;;;;;;2083638;28;20033;-79
2022/08/04 01:45:10;;;;;;;4.75;2.63;;;;;;;;;;2083212;28;20029;-79
2022/08/04 01:46:32;;;;;;;5.28;2.55;;;;;;;;;;2089073;28;20029;-79
2022/08/04 01:47:52;;;;;;;5.95;2.90;;;;;;;;;;2088261;28;20033;-79
2022/08/04 01:49:11;;;;;;;4.95;2.53;;;;;;;;;;2088050;28;20029;-78
2022/08/04 01:50:34;;;;;;;3.97;2.78;;;;;;;;;;2087101;28;20108;-78
2022/08/04 01:51:54;;;;;;;3.65;2.75;;;;;;;;;;2087950;28;20033;-78
2022/08/04 01:53:13;;;;;;;4.00;2.60;;;;;;;;;;2083465;28;20033;-78
2022/08/04 01:54:34;;;;;;;5.60;2.65;;;;;;;;;;2087847;28;20021;-77
2022/08/04 01:55:55;;;;;;;7.50;3.22;;;;;;;;;;2085975;28;20104;-78
2022/08/04 01:57:16;;;;;;;4.88;2.90;;;;;;;;;;2088661;28;20033;-77
2022/08/04 01:58:36;;;;;;;4.63;2.80;;;;;;;;;;2087059;28;20021;-79
2022/08/04 01:59:57;;;;;;;6.43;2.85;;;;;;;;;;2087207;28;20111;-77
2022/08/04 02:01:16;;;;;;;3.65;2.55;;;;;;;;;;2087863;28;20111;-78
2022/08/04 02:02:35;;;;;;;4.60;2.67;;;;;;;;;;2089351;28;20025;-78
2022/08/04 02:03:54;;;;;;;7.20;2.45;;;;;;;;;;2087136;28;20028;-79
2022/08/04 02:05:14;;;;;;;3.13;2.40;;;;;;;;;;2087891;28;20033;-78
2022/08/04 02:06:49;;;;;;;4.68;2.75;;;;;;;;;;2096148;28;20040;-78
2022/08/04 02:08:14;;;;;;;5.13;2.80;;;;;;;;;;2089224;28;20021;-78
2022/08/04 02:09:52;;;;;;;2.55;2.35;;;;;;;;;;2087308;28;20500;-77
2022/08/04 02:11:14;;;;;;;5.18;2.67;;;;;;;;;;2087517;28;20501;-79
2022/08/04 02:12:33;;;;;;;3.75;2.63;;;;;;;;;;2087700;28;20065;-78
2022/08/04 02:13:52;;;;;;;5.85;2.88;;;;;;;;;;2084510;28;20029;-78
2022/08/04 02:15:14;;;;;;;4.32;2.58;;;;;;;;;;2087231;28;20041;-77
2022/08/04 02:16:42;;;;;;;4.60;2.72;;;;;;;;;;2088235;28;20045;-79
2022/08/04 02:18:13;;;;;;;2.55;2.30;;;;;;;;;;2087940;28;20401;-79
2022/08/04 02:19:36;;;;;;;3.55;2.58;;;;;;;;;;2086931;28;20478;-79
2022/08/04 02:20:55;;;;;;;;;;;;;;;;;;2087058;28;20048;-79
2022/08/04 02:22:17;;;;;;;4.22;2.92;;;;;;;;;;2088354;28;20014;-78
2022/08/04 02:23:39;;;;;;;7.95;2.80;;;;;;;;;;2088731;28;20100;-79
2022/08/04 02:25:08;;;;;;;4.18;2.50;;;;;;;;;;2088442;28;20131;-79
2022/08/04 02:26:28;;;;;;;4.93;2.40;;;;;;;;;;2086969;28;20022;-78
2022/08/04 02:27:54;;;;;;;4.65;2.35;;;;;;;;;;2086365;28;20421;-78
2022/08/04 02:29:22;;;;;;;4.78;2.35;;;;;;;;;;2086128;28;20029;-79
2022/08/04 02:30:50;;;;;;;4.95;2.78;;;;;;;;;;2087692;28;20029;-78
2022/08/04 02:32:18;;;;;;;5.50;2.88;;;;;;;;;;2087021;28;20037;-79
2022/08/04 02:33:51;;;;;;;4.70;2.22;;;;;;;;;;2088450;28;20429;-79
2022/08/04 02:35:39;;;;;;;3.75;2.60;;;;;;;;;;2086914;28;20037;-77
2022/08/04 02:36:59;;;;;;;5.43;2.72;;;;;;;;;;2082112;28;20033;-79
2022/08/04 02:38:39;;;;;;;3.90;2.40;;;;;;;;;;2087182;28;20449;-79
2022/08/04 02:40:00;;;;;;;4.63;2.85;;;;;;;;;;2086482;28;20029;-79
2022/08/04 02:41:20;;;;;;;4.65;2.40;;;;;;;;;;2082965;28;20510;-79
2022/08/04 02:42:39;;;;;;;4.35;2.67;;;;;;;;;;2088710;28;20029;-79
2022/08/04 02:44:06;;;;;;;2.33;2.13;;;;;;;;;;2094080;28;20052;-79
2022/08/04 02:45:25;;;;;;;5.28;2.55;;;;;;;;;;2085326;28;20037;-79
2022/08/04 02:46:45;;;;;;;8.30;2.30;;;;;;;;;;2083563;28;20060;-78
2022/08/04 02:48:07;;;;;;;3.70;2.47;;;;;;;;;;2087606;28;20067;-79
2022/08/04 02:49:28;;;;;;;4.72;2.50;;;;;;;;;;2087921;28;20021;-78
2022/08/04 02:50:47;;;;;;;6.05;2.67;;;;;;;;;;2088626;28;20803;-78
2022/08/04 02:52:09;;;;;;;5.95;2.28;;;;;;;;;;2086226;28;20096;-79
2022/08/04 02:53:29;;;;;;;6.18;2.78;;;;;;;;;;2095922;28;20037;-78
2022/08/04 02:54:50;;;;;;;4.25;2.35;;;;;;;;;;2091891;28;20498;-79
2022/08/04 02:56:10;;;;;;;5.65;2.60;;;;;;;;;;2095456;28;20493;-79
2022/08/04 02:57:30;;;;;;;5.13;2.53;;;;;;;;;;2090707;28;20029;-78
2022/08/04 02:58:56;;;;;;;4.78;2.40;;;;;;;;;;2089094;28;20029;-79
2022/08/04 03:00:18;;;;;;;5.40;2.42;;;;;;;;;;2085773;28;20108;-78
2022/08/04 03:01:38;;;;;;;6.30;2.63;;;;;;;;;;2086792;28;20033;-77
2022/08/04 03:03:15;;;;;;;4.82;2.53;;;;;;;;;;2088597;28;20073;-77
2022/08/04 03:04:42;;;;;;;2.65;2.33;;;;;;;;;;2088276;28;20033;-77
2022/08/04 03:06:16;;;;;;;9.52;2.60;;;;;;;;;;2087788;28;20680;-78
2022/08/04 03:07:51;;;;;;;4.32;2.45;;;;;;;;;;2087901;28;20025;-78
2022/08/04 03:09:17;;;;;;;3.65;2.30;;;;;;;;;;2088374;28;20033;-78
2022/08/04 03:10:42;;;;;;;6.53;2.15;;;;;;;;;;2084857;28;20029;-78
2022/08/04 03:12:19;;;;;;;6.45;2.35;;;;;;;;;;2085949;28;20025;-78
2022/08/04 03:13:38;;;;;;;3.58;2.47;;;;;;;;;;2085951;28;20033;-78
2022/08/04 03:15:08;;;;;;;4.18;2.42;;;;;;;;;;2088363;28;20025;-78
2022/08/04 03:16:33;;;;;;;5.65;2.83;;;;;;;;;;2089071;28;20100;-77
2022/08/04 03:18:13;;;;;;;3.90;2.10;;;;;;;;;;2087492;28;20152;-77
2022/08/04 03:19:34;;;;;;;5.35;2.10;;;;;;;;;;2087734;28;20025;-78
2022/08/04 03:20:53;;;;;;;2.95;2.47;;;;;;;;;;2088092;28;20025;-78
2022/08/04 03:22:21;;;;;;;3.55;2.15;;;;;;;;;;2087354;28;20025;-78
2022/08/04 03:24:19;;;;;;;4.18;2.50;;;;;;;;;;2086239;28;20510;-78
2022/08/04 03:25:56;;;;;;;4.10;2.65;;;;;;;;;;2056881;28;20133;-78
2022/08/04 03:27:47;;;;;;;7.40;2.33;;;;;;;;;;2055633;28;20038;-78
2022/08/04 03:29:05;;;;;;;6.03;2.15;;;;;;;;;;2056445;28;20039;-77
2022/08/04 03:30:46;;;;;;;7.78;2.40;;;;;;;;;;2056150;28;20039;-78
2022/08/04 03:32:05;;;;;;;7.28;2.65;;;;;;;;;;2089813;28;20029;-78
2022/08/04 03:33:39;;;;;;;4.15;2.15;;;;;;;;;;2088090;28;20884;-78
2022/08/04 03:35:14;;;;;;;3.72;1.98;;;;;;;;;;2088751;28;20053;-78
2022/08/04 03:36:42;;;;;;;5.25;2.33;;;;;;;;;;2089466;28;20025;-78
2022/08/04 03:38:07;;;;;;;5.80;2.42;;;;;;;;;;2088240;28;20108;-78
2022/08/04 03:39:44;;;;;;;7.22;2.90;;;;;;;;;;2085870;28;20036;-78
2022/08/04 03:41:22;;;;;;;6.75;1.92;;;;;;;;;;2089578;28;20124;-79
2022/08/04 03:42:44;;;;;;;8.35;2.33;;;;;;;;;;2087773;28;20067;-78
2022/08/04 03:44:25;;;;;;;4.65;2.00;;;;;;;;;;2088960;28;20037;-78
2022/08/04 03:46:03;;;;;;;3.83;2.00;;;;;;;;;;2089420;28;20068;-78
2022/08/04 03:47:39;;;;;;;4.07;2.30;;;;;;;;;;2088867;28;20038;-78
2022/08/04 03:49:17;;;;;;;2.38;2.10;;;;;;;;;;2088449;28;20541;-78
2022/08/04 03:50:46;;;;;;;4.82;2.10;;;;;;;;;;2090162;28;20033;-79
2022/08/04 03:54:30;;;;;;;4.70;2.42;;;;;;;;;;2088837;28;20025;-78
2022/08/04 03:56:08;;;;;;;4.60;1.95;;;;;;;;;;2089865;28;20025;-78
2022/08/04 03:57:27;;;;;;;4.10;2.20;;;;;;;;;;2088065;28;20041;-78
2022/08/04 03:58:46;;;;;;;5.63;2.25;;;;;;;;;;2088617;28;20089;-78
2022/08/04 04:00:11;;;;;;;7.05;2.40;;;;;;;;;;2089856;28;20037;-77
2022/08/04 04:01:55;;;;;;;8.35;3.00;;;;;;;;;;2090335;28;20433;-77
2022/08/04 04:03:14;;;;;;;3.90;2.55;;;;;;;;;;2088720;28;20044;-77
2022/08/04 04:04:54;;;;;;;2.47;2.28;;;;;;;;;;2089468;28;20029;-78
2022/08/04 04:06:19;;;;;;;4.10;2.80;;;;;;;;;;2089417;28;20035;-77
2022/08/04 04:07:41;;;;;;;5.25;2.20;;;;;;;;;;2089591;28;20021;-78
2022/08/04 04:09:22;;;;;;;8.90;2.25;;;;;;;;;;2089537;28;20033;-77
2022/08/04 04:10:59;;;;;;;5.97;2.70;;;;;;;;;;2087317;28;20029;-77
2022/08/04 04:12:25;;;;;;;8.52;2.83;;;;;;;;;;2089392;28;20065;-78
2022/08/04 04:13:44;;;;;;;6.43;2.58;;;;;;;;;;2088804;28;20064;-78
2022/08/04 04:15:09;;;;;;;3.88;2.00;;;;;;;;;;2089033;28;20141;-78
2022/08/04 04:16:31;;;;;;;4.47;2.50;;;;;;;;;;2089258;28;20017;-78
2022/08/04 04:18:10;;;;;;;4.60;2.30;;;;;;;;;;2089126;28;20108;-77
2022/08/04 04:19:50;;;;;;;3.55;2.65;;;;;;;;;;2085821;28;20474;-77
2022/08/04 04:21:21;;;;;;;8.35;2.50;;;;;;;;;;2093259;28;20028;-78
2022/08/04 04:22:51;;;;;;;6.70;2.50;;;;;;;;;;2089295;28;20017;-77
2022/08/04 04:24:24;;;;;;;4.38;2.25;;;;;;;;;;2087140;28;20115;-78
2022/08/04 04:25:50;;;;;;;8.75;2.65;;;;;;;;;;2087361;28;20105;-78
2022/08/04 04:27:20;;;;;;;4.97;2.50;;;;;;;;;;2086396;28;20025;-79
2022/08/04 04:28:48;;;;;;;10.43;2.90;;;;;;;;;;2088003;28;20029;-78
2022/08/04 04:30:13;;;;;;;7.20;2.40;;;;;;;;;;2088326;28;20790;-78
2022/08/04 04:31:36;;;;;;;6.90;2.25;;;;;;;;;;2089526;28;20076;-77
2022/08/04 04:33:02;;;;;;;3.95;2.22;;;;;;;;;;2086543;28;20041;-77
2022/08/04 04:34:30;;;;;;;5.90;2.42;;;;;;;;;;2086972;28;20025;-77
2022/08/04 04:36:21;;;;;;;4.65;2.55;;;;;;;;;;2088107;28;20037;-81
2022/08/04 04:37:46;;;;;;;4.78;2.40;;;;;;;;;;2052117;28;20031;-81
2022/08/04 04:39:12;;;;;;;7.15;2.60;;;;;;;;;;2086185;28;20064;-80
2022/08/04 04:41:03;;;;;;;5.05;2.22;;;;;;;;;;2088865;28;20386;-81
2022/08/04 04:42:22;;;;;;;2.40;1.98;;;;;;;;;;2047854;28;20031;-77
2022/08/04 04:43:53;;;;;;;7.10;2.30;;;;;;;;;;2088253;28;20025;-78
2022/08/04 04:45:12;;;;;;;6.00;2.20;;;;;;;;;;2087294;28;20064;-78
2022/08/04 04:46:55;;;;;;;4.45;2.20;;;;;;;;;;2087780;28;20065;-76
2022/08/04 04:48:20;;;;;;;4.80;2.00;;;;;;;;;;2086864;28;20499;-77
2022/08/04 04:49:45;;;;;;;4.60;2.30;;;;;;;;;;2088607;28;20033;-76
2022/08/04 04:51:16;;;;;;;3.72;2.25;;;;;;;;;;2087662;28;20043;-79
2022/08/04 04:52:46;;;;;;;4.07;2.35;;;;;;;;;;2094728;28;20127;-77
2022/08/04 04:54:31;;;;;;;4.45;2.10;;;;;;;;;;2088080;28;20041;-79
2022/08/04 04:55:54;;;;;;;4.18;2.20;;;;;;;;;;2089227;28;20609;-80
2022/08/04 04:57:18;;;;;;;4.00;2.30;;;;;;;;;;2088017;28;20549;-80
2022/08/04 04:58:38;;;;;;;3.95;2.25;;;;;;;;;;2089329;28;20100;-79
2022/08/04 04:59:59;;;;;;;6.07;2.47;;;;;;;;;;2090011;28;20569;-78
2022/08/04 05:01:18;;;;;;;5.90;2.13;;;;;;;;;;2088816;28;20483;-79
2022/08/04 05:02:46;;;;;;;6.80;2.20;;;;;;;;;;2087862;28;20037;-79
2022/08/04 05:04:08;;;;;;;6.90;2.50;;;;;;;;;;2088795;28;20052;-80
2022/08/04 05:05:33;;;;;;;5.60;2.40;;;;;;;;;;2088664;28;20033;-79
2022/08/04 05:06:58;;;;;;;4.25;2.33;;;;;;;;;;2086507;28;20025;-78
2022/08/04 05:08:23;;;;;;;3.88;2.60;;;;;;;;;;2088183;28;20021;-79
2022/08/04 05:09:49;;;;;;;4.00;2.13;;;;;;;;;;2089660;28;20029;-80
2022/08/04 05:11:16;;;;;;;3.63;2.53;;;;;;;;;;2090108;28;20033;-80
2022/08/04 05:13:11;;;;;;;4.63;2.20;;;;;;;;;;2087825;28;20033;-80
2022/08/04 05:14:34;;;;;;;5.15;2.53;;;;;;;;;;2058989;28;20031;-79
2022/08/04 05:15:56;;;;;;;3.55;1.95;;;;;;;;;;2059410;28;20105;-80
2022/08/04 05:17:15;;;;;;;4.05;2.13;;;;;;;;;;2087896;28;20033;-80
2022/08/04 05:18:36;;;;;;;8.23;2.50;;;;;;;;;;2087997;28;20021;-78
2022/08/04 05:20:05;;;;;;;7.30;2.58;;;;;;;;;;2088685;28;20044;-79
2022/08/04 05:21:27;;;;;;;2.65;2.20;;;;;;;;;;2088820;28;20037;-79
2022/08/04 05:22:53;;;;;;;6.07;2.20;;;;;;;;;;2088443;28;20029;-80
2022/08/04 05:24:14;;;;;;;3.72;2.30;;;;;;;;;;2087361;28;20108;-78
2022/08/04 05:25:36;;;;;;;4.53;2.45;;;;;;;;;;2088193;28;20053;-79
2022/08/04 05:26:59;;;;;;;6.75;2.35;;;;;;;;;;2087602;28;20064;-79
2022/08/04 05:28:18;;;;;;;;;;;;;;;;;;2088692;28;20482;-79
2022/08/04 05:29:40;;;;;;;3.78;2.40;;;;;;;;;;2088230;28;19938;-79
2022/08/04 05:31:01;;;;;;;5.03;2.22;;;;;;;;;;2087762;28;20522;-79
2022/08/04 05:32:25;;;;;;;6.43;2.70;;;;;;;;;;2086207;28;20058;-80
2022/08/04 05:33:54;;;;;;;2.72;2.00;;;;;;;;;;2088205;28;20029;-80
2022/08/04 05:35:20;;;;;;;4.05;2.20;;;;;;;;;;2088199;28;20476;-80
2022/08/04 05:36:42;;;;;;;5.25;2.45;;;;;;;;;;2088361;28;20041;-79
2022/08/04 05:38:03;;;;;;;6.28;2.20;;;;;;;;;;2088802;28;20025;-80
2022/08/04 05:39:24;;;;;;;7.13;2.65;;;;;;;;;;2085480;28;20506;-80
2022/08/04 05:40:43;;;;;;;5.63;2.60;;;;;;;;;;2089410;28;20029;-79
2022/08/04 05:42:03;;;;;;;6.53;2.47;;;;;;;;;;2089226;28;20032;-78
2022/08/04 05:43:22;;;;;;;5.40;2.97;;;;;;;;;;2088755;28;20064;-79
2022/08/04 05:44:42;;;;;;;3.55;2.38;;;;;;;;;;2084300;28;20022;-79
2022/08/04 05:46:01;;;;;;;4.50;2.33;;;;;;;;;;2088217;28;20025;-81
2022/08/04 05:47:20;;;;;;;6.55;2.72;;;;;;;;;;2088410;28;20111;-81
2022/08/04 05:48:40;;;;;;;4.45;2.42;;;;;;;;;;2088192;28;20028;-79
2022/08/04 05:50:03;;;;;;;4.82;3.13;;;;;;;;;;2088231;28;20063;-80
2022/08/04 05:51:22;;;;;;;;;;;;;;;;;;2088056;28;20116;-79
2022/08/04 05:52:42;;;;;;;2.85;1.98;;;;;;;;;;2088822;28;19905;-79
2022/08/04 05:54:01;;;;;;;3.25;2.38;;;;;;;;;;2089448;28;20410;-79
2022/08/04 05:55:20;;;;;;;3.75;2.33;;;;;;;;;;2086909;28;20029;-78
2022/08/04 05:56:39;;;;;;;8.35;2.47;;;;;;;;;;2086914;28;20025;-79
2022/08/04 05:57:58;;;;;;;5.38;3.00;;;;;;;;;;2094998;28;20029;-78
2022/08/04 05:59:18;;;;;;;3.17;2.30;;;;;;;;;;2088361;28;20029;-78
2022/08/04 06:00:37;;;;;;;5.10;2.38;;;;;;;;;;2084332;28;20017;-78
2022/08/04 06:01:57;;;;;;;6.68;2.65;;;;;;;;;;2084103;28;20033;-78
2022/08/04 06:03:18;;;;;;;6.07;2.60;;;;;;;;;;2086457;28;20052;-79
2022/08/04 06:04:38;;;;;;;3.88;2.15;;;;;;;;;;2087625;28;20025;-78
2022/08/04 06:05:57;;;;;;;3.55;2.13;;;;;;;;;;2087749;28;20120;-79
2022/08/04 06:07:17;;;;;;;5.35;2.30;;;;;;;;;;2087243;28;20484;-80
2022/08/04 06:08:37;;;;;;;5.25;2.22;;;;;;;;;;2087570;28;20490;-78
2022/08/04 06:09:56;;;;;;;10.88;2.22;;;;;;;;;;2083320;28;20033;-78
2022/08/04 06:11:16;;;;;;;2.60;2.08;;;;;;;;;;2087623;28;20029;-76
2022/08/04 06:12:45;;;;;;;3.42;2.55;;;;;;;;;;2095420;28;20036;-78
2022/08/04 06:14:06;;;;;;;5.15;2.45;;;;;;;;;;2086687;28;20025;-79
2022/08/04 06:15:26;;;;;;;3.08;2.45;;;;;;;;;;2086598;28;20063;-80
2022/08/04 06:16:45;;;;;;;4.50;2.40;;;;;;;;;;2088513;28;20069;-81
2022/08/04 06:18:05;;;;;;;3.08;2.28;;;;;;;;;;2084241;28;20065;-81
2022/08/04 06:19:26;;;;;;;3.03;2.30;;;;;;;;;;2087766;28;20029;-82
2022/08/04 06:20:45;;;;;;;3.90;2.17;;;;;;;;;;2088275;28;20041;-76
2022/08/04 06:22:05;;;;;;;4.35;2.08;;;;;;;;;;2086271;28;20036;-79
2022/08/04 06:23:26;;;;;;;5.28;2.03;;;;;;;;;;2088166;28;20037;-78
2022/08/04 06:24:47;;;;;;;4.88;2.13;;;;;;;;;;2086842;28;20045;-80
2022/08/04 06:26:09;;;;;;;7.53;2.72;;;;;;;;;;2088209;28;20417;-82
2022/08/04 06:27:28;;;;;;;6.45;2.63;;;;;;;;;;2088190;28;20436;-82
2022/08/04 06:28:49;;;;;;;4.82;2.38;;;;;;;;;;2085527;28;20151;-77
2022/08/04 06:30:13;;;;;;;4.25;2.33;;;;;;;;;;2085369;28;20498;-78
2022/08/04 06:32:23;;;;;;;6.85;2.55;;;;;;;;;;2084777;28;20468;-78
2022/08/04 06:33:23;;;;;;;5.32;2.35;;;;;;;;;;2085644;28;20025;-79
2022/08/04 06:34:41;;;;;;;3.17;2.03;;;;;;;;;;2086790;28;20029;-79
2022/08/04 06:36:01;;;;;;;3.95;1.92;;;;;;;;;;2078317;28;20458;-78
2022/08/04 06:37:21;;;;;;;5.85;5.10;;;;;;;;;;2080841;28;20504;-79
2022/08/04 06:38:40;;;;;;;4.57;2.85;;;;;;;;;;2087728;28;20029;-80
2022/08/04 06:40:03;;;;;;;3.78;1.83;;;;;;;;;;2087090;28;20034;-84
2022/08/04 06:41:22;;;;;;;6.32;2.20;;;;;;;;;;2086780;28;20429;-83
2022/08/04 06:42:45;;;;;;;3.58;2.78;;;;;;;;;;2083719;28;20061;-87
2022/08/04 06:44:06;;;;;;;6.38;2.40;;;;;;;;;;2087452;28;20064;-82
2022/08/04 06:45:25;;;;;;;2.45;1.50;;;;;;;;;;2094649;28;21857;-83
2022/08/04 06:46:44;;;;;;;3.50;1.60;;;;;;;;;;2087664;28;20024;-85
2022/08/04 06:48:05;;;;;;;3.70;1.70;;;;;;;;;;2088818;28;20025;-83
2022/08/04 06:49:24;;;;;;;2.63;1.65;;;;;;;;;;2087942;28;20494;-83
2022/08/04 06:50:46;;;;;;;4.57;2.17;;;;;;;;;;2086892;28;20028;-84
2022/08/04 06:52:05;;;;;;;6.32;2.38;;;;;;;;;;2088215;28;20033;-83
2022/08/04 06:53:24;;;;;;;2.70;1.63;;;;;;;;;;2086042;28;20037;-82
2022/08/04 06:54:44;;;;;;;3.17;1.67;;;;;;;;;;2088564;28;20025;-83
2022/08/04 06:56:03;;;;;;;4.25;1.77;;;;;;;;;;2087231;28;20029;-82
2022/08/04 06:57:25;;;;;;;4.60;1.27;;;;;;;;;;2087466;28;20041;-82
2022/08/04 06:58:47;;;;;;;3.53;1.63;;;;;;;;;;2086587;28;20041;-82
2022/08/04 07:00:10;;;;;;;2.58;1.30;;;;;;;;;;2087266;28;20025;-83
2022/08/04 07:01:29;;;;;;;3.75;1.50;;;;;;;;;;2088224;28;20042;-82
2022/08/04 07:02:49;;;;;;;4.43;1.38;;;;;;;;;;2089273;28;20033;-82
2022/08/04 07:04:09;;;;;;;4.03;1.55;;;;;;;;;;2089362;28;20060;-83
2022/08/04 07:05:28;;;;;;;6.13;1.92;;;;;;;;;;2094680;28;20025;-82
2022/08/04 07:06:47;;;;;;;2.65;1.65;;;;;;;;;;2088431;28;20025;-82
2022/08/04 07:08:08;;;;;;;3.22;2.05;;;;;;;;;;2084187;28;20029;-82
2022/08/04 07:09:27;;;;;;;1.95;1.30;;;;;;;;;;2086774;28;20053;-82
2022/08/04 07:10:47;;;;;;;3.30;1.55;;;;;;;;;;2084694;28;20033;-84
2022/08/04 07:12:07;;;;;;;3.42;1.50;;;;;;;;;;2085225;28;20025;-83
2022/08/04 07:13:27;;;;;;;3.38;1.27;;;;;;;;;;2086189;28;20056;-84
2022/08/04 07:14:46;;;;;;;5.65;1.80;;;;;;;;;;2087503;28;20033;-81
2022/08/04 07:16:06;;;;;;;5.90;1.70;;;;;;;;;;2084172;28;20041;-85
2022/08/04 07:17:27;;;;;;;3.78;1.75;;;;;;;;;;2085475;28;20120;-89
2022/08/04 07:18:46;;;;;;;2.58;1.65;;;;;;;;;;2084938;28;20441;-82
2022/08/04 07:20:06;;;;;;;2.22;1.65;;;;;;;;;;2086610;28;20025;-84
2022/08/04 07:21:26;;;;;;;14.48;1.63;;;;;;;;;;2086370;28;20036;-89
2022/08/04 07:22:47;;;;;;;3.67;1.60;;;;;;;;;;2086745;28;20033;-86
2022/08/04 07:24:06;;;;;;;2.05;1.65;;;;;;;;;;2087202;28;20036;-86
2022/08/04 07:25:25;;;;;;;4.30;1.70;;;;;;;;;;2087176;28;20041;-86
2022/08/04 07:26:48;;;;;;;2.97;1.70;;;;;;;;;;2087856;28;20037;-84
2022/08/04 07:28:07;;;;;;;2.58;1.00;;;;;;;;;;2087419;28;20069;-88
2022/08/04 07:29:26;;;;;;;3.13;1.63;;;;;;;;;;2087052;28;20037;-86
2022/08/04 07:30:46;;;;;;;1.58;1.30;;;;;;;;;;2084527;28;20061;-87
2022/08/04 07:32:05;;;;;;;2.58;1.30;;;;;;;;;;2086350;28;20033;-84
2022/08/04 07:33:25;;;;;;;2.40;1.55;;;;;;;;;;2083437;28;20061;-86
2022/08/04 07:34:44;;;;;;;2.92;1.10;;;;;;;;;;2090691;28;20561;-82
2022/08/04 07:36:02;;;;;;;2.70;1.30;;;;;;;;;;2088653;28;20594;-86
2022/08/04 07:37:21;;;;;;;2.22;1.08;;;;;;;;;;2089870;28;20056;-82
2022/08/04 07:38:41;;;;;;;3.50;1.30;;;;;;;;;;2087370;28;20018;-84
2022/08/04 07:40:00;;;;;;;2.05;1.20;;;;;;;;;;2087139;28;20506;-87
2022/08/04 07:41:22;;;;;;;1.95;1.08;;;;;;;;;;2078162;28;20053;-86
2022/08/04 07:42:42;;;;;;;1.67;1.15;;;;;;;;;;2080681;28;20522;-86
2022/08/04 07:44:01;;;;;;;4.63;1.30;;;;;;;;;;2089840;28;20045;-87
2022/08/04 07:45:22;;;;;;;3.10;1.30;;;;;;;;;;2084425;28;20033;-83
2022/08/04 07:46:41;;;;;;;2.58;1.50;;;;;;;;;;2084094;28;20029;-85
2022/08/04 07:48:02;;;;;;;2.20;1.52;;;;;;;;;;2087885;28;20418;-81
2022/08/04 07:49:22;;;;;;;4.60;1.50;;;;;;;;;;2085766;28;20064;-89
2022/08/04 07:50:43;;;;;;;3.33;1.20;;;;;;;;;;2087523;28;20382;-78
2022/08/04 07:52:03;;;;;;;1.40;1.10;;;;;;;;;;2086850;28;20030;-82
2022/08/04 07:53:22;;;;;;;2.35;1.10;;;;;;;;;;2087443;28;20028;-83
2022/08/04 07:54:41;;;;;;;3.25;1.45;;;;;;;;;;2088433;28;20021;-84
2022/08/04 07:56:01;;;;;;;2.10;1.40;;;;;;;;;;2086128;28;20034;-77
2022/08/04 07:57:20;;;;;;;2.78;1.33;;;;;;;;;;2087925;28;20033;-78
2022/08/04 07:58:39;;;;;;;2.67;1.05;;;;;;;;;;2086205;28;20029;-78
2022/08/04 07:59:58;;;;;;;2.20;1.00;;;;;;;;;;2086425;28;20147;-77
2022/08/04 08:01:20;;;;;;;1.38;1.27;;;;;;;;;;2083444;28;20044;-76
2022/08/04 08:02:40;;;;;;;3.47;1.23;;;;;;;;;;2085683;28;20037;-77
2022/08/04 08:04:00;;;;;;;2.65;1.17;;;;;;;;;;2086323;28;20045;-84
2022/08/04 08:05:20;;;;;;;1.70;1.08;;;;;;;;;;2086589;28;20021;-85
2022/08/04 08:06:40;;;;;;;2.80;1.20;;;;;;;;;;2084400;28;20037;-83
2022/08/04 08:07:59;;;;;;;1.80;1.10;;;;;;;;;;2080808;28;20033;-83
2022/08/04 08:09:20;;;;;;;2.05;1.55;;;;;;;;;;2092611;28;20025;-87
2022/08/04 08:10:44;;;;;;;1.88;1.30;;;;;;;;;;2091358;28;20021;-81
2022/08/04 08:12:04;;;;;;;1.90;1.17;;;;;;;;;;2087472;28;20391;-89
2022/08/04 08:13:22;;;;;;;1.60;1.20;;;;;;;;;;2087294;28;20029;-88
2022/08/04 08:14:41;;;;;;;3.25;1.35;;;;;;;;;;2089086;28;20025;-91
2022/08/04 08:16:01;;;;;;;3.33;1.52;;;;;;;;;;2088758;28;20029;-90
2022/08/04 08:17:20;;;;;;;2.72;1.10;;;;;;;;;;2087069;28;20037;-90
2022/08/04 08:18:39;;;;;;;3.50;1.02;;;;;;;;;;2088208;28;20040;-83
2022/08/04 08:19:58;;;;;;;1.90;1.30;;;;;;;;;;2087454;28;20029;-88
2022/08/04 08:21:20;;;;;;;1.20;1.10;;;;;;;;;;2085660;28;20155;-78
2022/08/04 08:22:40;;;;;;;2.70;1.23;;;;;;;;;;2088071;28;20111;-81
2022/08/04 08:24:00;;;;;;;4.13;1.40;;;;;;;;;;2093648;28;20103;-90
2022/08/04 08:25:19;;;;;;;3.95;1.35;;;;;;;;;;2086804;28;20033;-86
2022/08/04 08:26:39;;;;;;;3.72;1.27;;;;;;;;;;2089689;28;20037;-89
2022/08/04 08:28:00;;;;;;;3.15;1.08;;;;;;;;;;2089727;28;20029;-86